Detall de PIREP

Printer-friendly versionPDF version

[2011/07/15 10:28:00]
Flight IATA:CT0001
Pilot Number:042
Company ICAO:CAT
Aircraft Type:BE58/A
PAX:3
Departing Airport: LERS
Destination Airport: LEBL
Alternate Airport:LERS
Online: No
Route:DIRECT
Flight Level:F050
No Slew and time accel
No pause
Crash detect
Detect pilot in Cockpit between each 30 and 45 minutes
10:28 Zero fuel Weight: 4591 Lbs, Fuel Weight: 850 Lbs
10:28 VATSIM:LERS 271130Z 24011KT 210V270 CAVOK 12/02 Q1025
10:28 VATSIM:LEBL 271130Z 26007KT 210V310 9999 FEW025 12/03 Q1025 NOSIG
10:28 VOICE CATALONIAN
10:30 Parking Brakes off
10:35 Take-off
10:35 Take off Weight: 5437 Lbs
10:35 Wind: 269º @ 008 Knots Heading: 249º
10:35 POS N41º 08´ 56´´ E001º 10´ 21´´
10:35 Gear Up: 101 Knots
10:35 Flaps:1 at 101 Knots
10:35 Flaps:0 at 101 Knots
10:50 Wind:269º@008 Knots Heading: 069º Ground Speed: 163 Knots Altitude 1023 ft
10:51 Flaps:1 at 158 Knots
10:51 Gear Down: 157 Knots
10:51 Gear Up: 151 Knots
10:51 Gear Down: 149 Knots
10:51 Flaps:2 at 137 Knots
10:52 TouchDown:Rate -279 ft/min Speed: 80 Knots
10:52 VATSIM:LEBL 271130Z 26007KT 210V310 9999 FEW025 12/03 Q1025 NOSIG
10:53 Land
10:53 Wind:269º@008 Knots
10:53 Heading: 059º
10:53 Flight Duration: 00:18
10:53 Landing Weight: 5398 Lbs
10:53 POS N41º 17´ 50´´ E002º 04´ 44´´
10:55 Parking brakes on
10:55 Block to Block Duration: 00:25
10:55 Final Fuel: 804 Lbls
10:55 Spent Fuel: 46 Lbls
10:55 Flight Length: 44 NM
10:55 TOD Land Length: 44 NM

Exportar CSV

Powered by Drupal - Modified by Danger4k